createdAt,value
2018-03-21T00:00:08.196Z,0.51
2018-03-21T00:02:35.763Z,0.54
2018-03-21T00:05:03.392Z,0.51
2018-03-21T00:07:31.020Z,0.52
2018-03-21T00:09:58.582Z,0.54
2018-03-21T00:12:26.224Z,0.50
2018-03-21T00:14:53.792Z,0.50
2018-03-21T00:17:21.377Z,0.53
2018-03-21T00:19:48.940Z,0.58
2018-03-21T00:22:16.593Z,0.59
2018-03-21T00:24:44.233Z,0.61
2018-03-21T00:27:11.862Z,0.63
2018-03-21T00:29:39.434Z,0.70
2018-03-21T00:32:07.059Z,0.72
2018-03-21T00:34:34.706Z,0.68
2018-03-21T00:37:02.331Z,0.67
2018-03-21T00:39:29.920Z,0.74
2018-03-21T00:41:57.504Z,0.86
2018-03-21T00:44:25.095Z,0.93
2018-03-21T00:46:52.722Z,0.98
2018-03-21T00:49:20.364Z,1.07
2018-03-21T00:51:47.927Z,1.15
2018-03-21T00:54:15.546Z,1.20
2018-03-21T00:56:43.172Z,1.27
2018-03-21T00:59:10.730Z,1.30
2018-03-21T01:01:38.302Z,1.36
2018-03-21T01:04:05.883Z,1.41
2018-03-21T01:06:33.519Z,1.43
2018-03-21T01:09:01.144Z,1.47
2018-03-21T01:11:28.722Z,1.38
2018-03-21T01:13:56.299Z,1.38
2018-03-21T01:16:23.936Z,1.39
2018-03-21T01:18:51.507Z,1.37
2018-03-21T01:21:19.071Z,1.32
2018-03-21T01:23:46.654Z,1.31
2018-03-21T01:26:14.280Z,1.27
2018-03-21T01:28:41.913Z,1.23
2018-03-21T01:31:09.490Z,1.17
2018-03-21T01:33:37.078Z,1.08
2018-03-21T01:36:04.687Z,1.05
2018-03-21T01:38:32.352Z,0.96
2018-03-21T01:40:59.927Z,0.90
2018-03-21T01:43:27.502Z,0.85
2018-03-21T01:45:55.113Z,0.75
2018-03-21T01:48:22.683Z,0.71
2018-03-21T01:50:50.362Z,0.69
2018-03-21T01:53:17.941Z,0.71
2018-03-21T01:55:45.520Z,0.75
2018-03-21T01:58:13.091Z,0.83
2018-03-21T02:00:40.812Z,0.85
2018-03-21T02:03:08.450Z,0.86
2018-03-21T02:05:36.016Z,0.84
2018-03-21T02:08:03.587Z,0.85
2018-03-21T02:10:31.211Z,0.84
2018-03-21T02:12:58.790Z,0.83
2018-03-21T02:15:26.430Z,0.79
2018-03-21T02:17:54.058Z,0.78
2018-03-21T02:20:21.700Z,0.75
2018-03-21T02:22:49.267Z,0.74
2018-03-21T02:25:16.863Z,0.75
2018-03-21T02:27:44.425Z,0.73
2018-03-21T02:30:12.007Z,0.77
2018-03-21T02:32:39.665Z,0.80
2018-03-21T02:35:07.295Z,0.80
2018-03-21T02:37:34.854Z,0.75
2018-03-21T02:40:02.414Z,0.76
2018-03-21T02:42:29.988Z,0.78
2018-03-21T02:44:57.619Z,0.83
2018-03-21T02:47:25.195Z,0.82
2018-03-21T02:49:52.758Z,0.83
2018-03-21T02:52:20.434Z,0.88
2018-03-21T02:54:48.089Z,0.88
2018-03-21T02:57:15.721Z,0.98
2018-03-21T02:59:43.309Z,1.04
2018-03-21T03:02:10.905Z,1.13
2018-03-21T03:04:38.543Z,1.17
2018-03-21T03:07:06.112Z,1.20
2018-03-21T03:09:33.754Z,1.20
2018-03-21T03:12:01.411Z,1.26
2018-03-21T03:14:29.094Z,1.30
2018-03-21T03:16:56.728Z,1.34
2018-03-21T03:19:24.396Z,1.39
2018-03-21T03:21:52.027Z,1.37
2018-03-21T03:24:19.590Z,1.37
2018-03-21T03:26:47.222Z,1.37
2018-03-21T03:29:14.874Z,1.39
2018-03-21T03:31:42.450Z,1.40
2018-03-21T03:34:10.033Z,1.41
2018-03-21T03:36:37.724Z,1.42
2018-03-21T03:39:05.383Z,1.42
2018-03-21T03:41:32.948Z,1.46
2018-03-21T03:44:00.534Z,1.48
2018-03-21T03:46:28.105Z,1.48
2018-03-21T03:48:55.669Z,1.51
2018-03-21T03:51:23.233Z,1.52
2018-03-21T03:53:50.879Z,1.57
2018-03-21T03:56:18.494Z,1.61
2018-03-21T03:58:46.054Z,1.66
2018-03-21T04:01:13.623Z,1.70
2018-03-21T04:03:41.198Z,1.75
2018-03-21T04:06:08.890Z,1.76
2018-03-21T04:08:36.464Z,1.81
2018-03-21T04:11:04.094Z,1.85
2018-03-21T04:13:31.710Z,1.91
2018-03-21T04:15:59.284Z,1.91
2018-03-21T04:18:26.862Z,1.93
2018-03-21T04:20:54.490Z,1.92
2018-03-21T04:23:22.118Z,1.86
2018-03-21T04:25:49.687Z,1.86
2018-03-21T04:28:17.344Z,1.88
2018-03-21T04:30:44.914Z,1.91
2018-03-21T04:33:12.481Z,1.98
2018-03-21T04:35:40.113Z,2.05
2018-03-21T04:38:07.744Z,2.08
2018-03-21T04:40:35.321Z,2.10
2018-03-21T04:43:02.890Z,2.19
2018-03-21T04:45:30.503Z,2.27
2018-03-21T04:47:58.114Z,2.31
2018-03-21T04:50:25.779Z,2.37
2018-03-21T04:52:53.402Z,2.43
2018-03-21T04:55:21.032Z,2.50
2018-03-21T04:57:48.647Z,2.55
2018-03-21T05:00:16.218Z,2.61
2018-03-21T05:02:43.783Z,2.66
2018-03-21T05:05:11.392Z,2.77
2018-03-21T05:07:38.971Z,2.75
2018-03-21T05:10:06.534Z,2.87
2018-03-21T05:12:34.173Z,2.92
2018-03-21T05:15:01.738Z,2.97
2018-03-21T05:17:29.306Z,2.93
2018-03-21T05:19:56.875Z,3.00
2018-03-21T05:22:24.441Z,3.04
2018-03-21T05:24:52.025Z,2.86
2018-03-21T05:27:19.587Z,2.82
2018-03-21T05:29:47.158Z,2.82
2018-03-21T05:32:14.731Z,2.73
2018-03-21T05:34:42.367Z,2.71
2018-03-21T05:37:10.004Z,2.77
2018-03-21T05:39:37.564Z,2.60
2018-03-21T05:42:05.139Z,2.54
2018-03-21T05:44:32.694Z,2.57
2018-03-21T05:47:00.266Z,2.53
2018-03-21T05:49:27.890Z,2.62
2018-03-21T05:51:55.463Z,2.78
2018-03-21T05:54:23.030Z,2.94
2018-03-21T05:56:50.713Z,2.96
2018-03-21T05:59:18.318Z,3.08
2018-03-21T06:01:45.881Z,3.20
2018-03-21T06:04:14.363Z,3.10
2018-03-21T06:06:41.937Z,3.15
2018-03-21T06:09:09.576Z,3.06
2018-03-21T06:11:37.147Z,2.95
2018-03-21T06:14:04.774Z,3.05
2018-03-21T06:16:32.349Z,2.94
2018-03-21T06:18:59.963Z,2.94
2018-03-21T06:21:27.525Z,2.89
2018-03-21T06:23:55.091Z,3.03
2018-03-21T06:26:22.680Z,3.13
2018-03-21T06:28:50.252Z,3.18
2018-03-21T06:31:17.892Z,3.28
2018-03-21T06:33:45.514Z,3.36
2018-03-21T06:36:13.097Z,3.40
2018-03-21T06:38:40.719Z,3.45
2018-03-21T06:41:08.294Z,3.61
2018-03-21T06:43:35.869Z,3.68
2018-03-21T06:46:03.495Z,3.89
2018-03-21T06:48:31.055Z,4.09
2018-03-21T06:50:58.676Z,3.96
2018-03-21T06:53:26.242Z,3.91
2018-03-21T06:55:53.807Z,3.64
2018-03-21T06:58:21.449Z,3.62
2018-03-21T07:00:49.014Z,3.73
2018-03-21T07:03:16.640Z,3.80
2018-03-21T07:05:44.212Z,3.68
2018-03-21T07:08:11.784Z,3.89
2018-03-21T07:10:39.414Z,4.03
2018-03-21T07:13:07.096Z,4.10
2018-03-21T07:15:46.623Z,4.13
2018-03-21T07:18:14.261Z,4.21
2018-03-21T07:20:41.893Z,4.26
2018-03-21T07:23:09.556Z,4.38
2018-03-21T07:25:37.199Z,4.44
2018-03-21T07:28:04.812Z,4.60
2018-03-21T07:30:32.450Z,4.76
2018-03-21T07:33:00.021Z,4.84
2018-03-21T07:35:27.594Z,4.84
2018-03-21T07:37:55.164Z,4.89
2018-03-21T07:40:22.791Z,4.89
2018-03-21T07:42:50.352Z,4.97
2018-03-21T07:45:17.921Z,5.14
2018-03-21T07:47:45.558Z,5.20
2018-03-21T07:50:13.182Z,5.46
2018-03-21T07:52:40.776Z,5.56
2018-03-21T07:55:08.341Z,5.70
2018-03-21T07:57:35.978Z,5.84
2018-03-21T08:00:03.544Z,5.84
2018-03-21T08:02:31.120Z,6.14
2018-03-21T08:04:58.679Z,6.35
2018-03-21T08:07:26.297Z,6.27
2018-03-21T08:09:53.931Z,6.37
2018-03-21T08:12:21.504Z,6.68
2018-03-21T08:14:49.134Z,6.85
2018-03-21T08:17:16.686Z,6.98
2018-03-21T08:19:44.247Z,7.10
2018-03-21T08:22:11.809Z,7.41
2018-03-21T08:24:39.454Z,7.66
2018-03-21T08:27:07.074Z,7.63
2018-03-21T08:29:34.691Z,7.75
2018-03-21T08:32:02.295Z,7.69
2018-03-21T08:34:29.858Z,7.70
2018-03-21T08:36:57.442Z,7.78
2018-03-21T08:39:25.012Z,7.93
2018-03-21T08:41:52.596Z,8.36
2018-03-21T08:44:20.158Z,8.98
2018-03-21T08:46:47.731Z,9.41
2018-03-21T08:49:15.296Z,10.22
2018-03-21T08:51:42.991Z,10.82
2018-03-21T08:54:10.778Z,11.18
2018-03-21T08:56:38.346Z,11.07
2018-03-21T08:59:05.920Z,11.38
2018-03-21T09:01:33.495Z,11.15
2018-03-21T09:04:01.071Z,10.92
2018-03-21T09:06:28.640Z,10.47
2018-03-21T09:08:56.275Z,10.52
2018-03-21T09:11:23.842Z,10.61
2018-03-21T09:13:51.522Z,10.56
2018-03-21T09:16:19.151Z,10.70
2018-03-21T09:18:46.714Z,11.13
2018-03-21T09:21:14.350Z,11.50
2018-03-21T09:23:41.910Z,11.27
2018-03-21T09:26:09.505Z,11.04
2018-03-21T09:28:37.079Z,10.56
2018-03-21T09:31:04.723Z,10.55
2018-03-21T09:33:32.286Z,10.76
2018-03-21T09:35:59.978Z,10.47
2018-03-21T09:38:27.560Z,10.40
2018-03-21T09:40:55.143Z,10.55
2018-03-21T09:43:22.719Z,10.78
2018-03-21T09:45:50.283Z,10.45
2018-03-21T09:48:17.872Z,11.04
2018-03-21T09:50:45.443Z,11.18
2018-03-21T09:53:13.017Z,10.66
2018-03-21T09:55:40.582Z,10.33
2018-03-21T09:58:08.276Z,10.22
2018-03-21T10:00:35.853Z,9.91
2018-03-21T10:03:03.428Z,9.82
2018-03-21T10:05:31.064Z,9.75
2018-03-21T10:07:58.626Z,9.37
2018-03-21T10:10:26.196Z,9.28
2018-03-21T10:12:53.820Z,9.42
2018-03-21T10:15:21.406Z,8.99
2018-03-21T10:17:48.963Z,9.04
2018-03-21T10:20:16.613Z,8.88
2018-03-21T10:22:44.185Z,9.17
2018-03-21T10:25:11.753Z,9.04
2018-03-21T10:27:39.394Z,9.32
2018-03-21T10:30:07.024Z,9.73
2018-03-21T10:32:34.595Z,9.22
2018-03-21T10:35:02.158Z,8.82
2018-03-21T10:37:29.785Z,9.20
2018-03-21T10:39:57.342Z,9.11
2018-03-21T10:42:24.962Z,8.78
2018-03-21T10:44:52.606Z,8.87
2018-03-21T10:47:20.268Z,8.79
2018-03-21T10:49:47.876Z,8.39
2018-03-21T10:52:15.445Z,8.51
2018-03-21T10:54:43.086Z,8.67
2018-03-21T10:57:10.692Z,8.64
2018-03-21T10:59:38.307Z,8.72
2018-03-21T11:02:11.479Z,8.59
2018-03-21T11:04:39.185Z,8.36
2018-03-21T11:07:06.819Z,8.41
2018-03-21T11:09:34.388Z,8.21
2018-03-21T11:12:01.964Z,8.21
2018-03-21T11:14:29.530Z,8.06
2018-03-21T11:16:57.102Z,8.20
2018-03-21T11:19:24.666Z,8.24
2018-03-21T11:21:52.243Z,8.34
2018-03-21T11:24:19.898Z,8.34
2018-03-21T11:26:47.482Z,8.22
2018-03-21T11:29:15.044Z,8.31
2018-03-21T11:31:42.606Z,7.85
2018-03-21T11:34:10.270Z,7.84
2018-03-21T11:36:37.841Z,8.02
2018-03-21T11:39:05.420Z,7.83
2018-03-21T11:41:32.994Z,7.64
2018-03-21T11:44:00.627Z,7.90
2018-03-21T11:46:28.256Z,8.22
2018-03-21T11:48:55.834Z,8.31
2018-03-21T11:51:23.459Z,8.43
2018-03-21T11:53:51.085Z,8.53
2018-03-21T11:56:18.654Z,9.08
2018-03-21T11:58:46.221Z,9.46
2018-03-21T12:01:13.897Z,9.38
2018-03-21T12:03:41.767Z,9.39
2018-03-21T12:06:09.467Z,9.38
2018-03-21T12:08:37.137Z,9.22
2018-03-21T12:11:04.766Z,8.34
2018-03-21T12:13:32.327Z,7.98
2018-03-21T12:15:59.894Z,8.11
2018-03-21T12:18:27.534Z,7.76
2018-03-21T12:20:55.101Z,7.67
2018-03-21T12:23:22.673Z,7.55
2018-03-21T12:25:50.249Z,7.61
2018-03-21T12:28:17.822Z,7.58
2018-03-21T12:30:45.392Z,7.67
2018-03-21T12:33:13.014Z,7.63
2018-03-21T12:35:40.586Z,7.51
2018-03-21T12:38:08.255Z,7.15
2018-03-21T12:40:35.841Z,7.01
2018-03-21T12:43:03.421Z,6.88
2018-03-21T12:45:30.998Z,6.66
2018-03-21T12:47:58.577Z,6.84
2018-03-21T12:50:26.210Z,6.99
2018-03-21T12:52:53.779Z,6.84
2018-03-21T12:55:21.411Z,6.69
2018-03-21T12:57:49.035Z,6.47
2018-03-21T13:00:16.602Z,6.41
2018-03-21T13:02:44.183Z,6.34
2018-03-21T13:05:11.756Z,6.09
2018-03-21T13:07:39.340Z,6.01
2018-03-21T13:10:06.928Z,5.73
2018-03-21T13:12:34.510Z,5.47
2018-03-21T13:15:02.074Z,5.20
2018-03-21T13:17:29.702Z,5.18
2018-03-21T13:19:57.335Z,5.26
2018-03-21T13:22:24.939Z,5.33
2018-03-21T13:24:52.514Z,5.26
2018-03-21T13:27:20.138Z,5.23
2018-03-21T13:29:47.771Z,5.11
2018-03-21T13:32:15.399Z,5.15
2018-03-21T13:34:43.037Z,5.06
2018-03-21T13:37:10.602Z,5.13
2018-03-21T13:39:38.222Z,5.32
2018-03-21T13:42:05.843Z,5.35
2018-03-21T13:44:33.414Z,5.40
2018-03-21T13:47:01.063Z,5.48
2018-03-21T13:49:28.625Z,5.38
2018-03-21T13:51:56.203Z,5.41
2018-03-21T13:54:23.844Z,5.45
2018-03-21T13:56:51.475Z,5.42
2018-03-21T13:59:19.038Z,5.37
2018-03-21T14:01:46.654Z,5.52
2018-03-21T14:04:14.303Z,5.78
2018-03-21T14:06:41.928Z,5.72
2018-03-21T14:09:09.569Z,5.67
2018-03-21T14:11:37.233Z,5.55
2018-03-21T14:14:04.876Z,5.57
2018-03-21T14:16:32.478Z,5.69
2018-03-21T14:19:00.119Z,5.47
2018-03-21T14:21:27.747Z,5.51
2018-03-21T14:23:55.427Z,5.52
2018-03-21T14:26:23.057Z,5.15
2018-03-21T14:28:50.683Z,5.19
2018-03-21T14:31:18.273Z,4.99
2018-03-21T14:33:45.847Z,4.92
2018-03-21T14:36:13.420Z,4.81
2018-03-21T14:38:41.045Z,4.70
2018-03-21T14:41:08.735Z,4.71
2018-03-21T14:43:36.299Z,4.54
2018-03-21T14:46:03.876Z,4.50
2018-03-21T14:48:31.446Z,4.44
2018-03-21T14:50:59.088Z,4.46
2018-03-21T14:53:26.733Z,4.48
2018-03-21T14:55:54.376Z,4.35
2018-03-21T14:58:22.068Z,4.26
2018-03-21T15:00:51.168Z,4.15
2018-03-21T15:03:18.806Z,3.85
2018-03-21T15:05:46.487Z,3.63
2018-03-21T15:08:14.070Z,3.73
2018-03-21T15:10:41.654Z,3.73
2018-03-21T15:13:09.303Z,3.56
2018-03-21T15:15:36.884Z,3.60
2018-03-21T15:18:05.094Z,3.45
2018-03-21T15:20:32.718Z,3.45
2018-03-21T15:23:00.309Z,3.47
2018-03-21T15:25:27.883Z,3.34
2018-03-21T15:27:55.457Z,3.40
2018-03-21T15:30:23.020Z,3.34
2018-03-21T15:32:50.695Z,3.34
2018-03-21T15:35:18.346Z,3.17
2018-03-21T15:37:45.945Z,3.24
2018-03-21T15:40:13.528Z,3.22
2018-03-21T15:42:41.167Z,3.26
2018-03-21T15:45:08.757Z,3.23
2018-03-21T15:47:36.420Z,3.15
2018-03-21T15:50:04.075Z,3.07
2018-03-21T15:52:31.659Z,3.05
2018-03-21T15:54:59.243Z,2.88
2018-03-21T15:57:26.880Z,2.83
2018-03-21T15:59:54.517Z,2.83
2018-03-21T16:02:22.693Z,2.77
2018-03-21T16:04:50.274Z,2.70
2018-03-21T16:07:18.595Z,2.68
2018-03-21T16:09:46.227Z,2.61
2018-03-21T16:12:13.810Z,2.66
2018-03-21T16:14:41.401Z,2.54
2018-03-21T16:17:09.047Z,2.52
2018-03-21T16:19:36.618Z,2.52
2018-03-21T16:22:04.256Z,2.38
2018-03-21T16:24:31.833Z,2.34
2018-03-21T16:26:59.498Z,2.37
2018-03-21T16:29:27.080Z,2.24
2018-03-21T16:31:54.654Z,2.27
2018-03-21T16:34:22.235Z,2.22
2018-03-21T16:36:49.810Z,2.25
2018-03-21T16:39:17.400Z,2.24
2018-03-21T16:41:44.970Z,2.24
2018-03-21T16:44:12.590Z,2.31
2018-03-21T16:46:40.178Z,2.31
2018-03-21T16:49:07.764Z,2.30
2018-03-21T16:51:35.362Z,2.28
2018-03-21T16:54:02.999Z,2.21
2018-03-21T16:56:30.574Z,2.22
2018-03-21T16:58:58.224Z,2.22
2018-03-21T17:01:25.802Z,2.23
2018-03-21T17:03:53.371Z,2.17
2018-03-21T17:06:20.995Z,2.20
2018-03-21T17:08:48.578Z,2.22
2018-03-21T17:11:16.206Z,2.26
2018-03-21T17:13:43.794Z,2.30
2018-03-21T17:16:11.375Z,2.23
2018-03-21T17:18:39.050Z,2.22
2018-03-21T17:21:06.627Z,2.25
2018-03-21T17:23:34.251Z,2.13
2018-03-21T17:26:01.886Z,2.18
2018-03-21T17:28:29.533Z,2.21
2018-03-21T17:30:57.114Z,2.18
2018-03-21T17:33:24.691Z,2.15
2018-03-21T17:35:52.280Z,2.16
2018-03-21T17:38:19.866Z,2.23
2018-03-21T17:40:47.448Z,2.18
2018-03-21T17:43:15.054Z,2.13
2018-03-21T17:45:42.716Z,2.15
2018-03-21T17:48:10.302Z,2.23
2018-03-21T17:50:37.887Z,2.27
2018-03-21T17:53:05.476Z,2.29
2018-03-21T17:55:33.061Z,2.30
2018-03-21T17:58:00.650Z,2.37
2018-03-21T18:00:28.297Z,2.35
2018-03-21T18:02:55.884Z,2.37
2018-03-21T18:05:23.456Z,2.30
2018-03-21T18:07:51.143Z,2.35
2018-03-21T18:10:18.723Z,2.26
2018-03-21T18:12:46.371Z,2.21
2018-03-21T18:15:13.989Z,2.30
2018-03-21T18:17:41.566Z,2.34
2018-03-21T18:20:09.150Z,2.35
2018-03-21T18:22:36.730Z,2.36
2018-03-21T18:25:04.344Z,2.40
2018-03-21T18:27:31.916Z,2.42
2018-03-21T18:29:59.556Z,2.46
2018-03-21T18:32:27.156Z,2.42
2018-03-21T18:34:54.809Z,2.43
2018-03-21T18:37:22.473Z,2.42
2018-03-21T18:39:50.116Z,2.38
2018-03-21T18:42:17.794Z,2.43
2018-03-21T18:44:45.431Z,2.43
2018-03-21T18:47:13.044Z,2.45
2018-03-21T18:49:40.707Z,2.42
2018-03-21T18:52:08.387Z,2.49
2018-03-21T18:54:36.134Z,2.48
2018-03-21T18:57:03.774Z,2.40
2018-03-21T18:59:31.567Z,2.46
2018-03-21T19:01:59.257Z,2.49
2018-03-21T19:04:26.909Z,2.52
2018-03-21T19:06:54.601Z,2.48
2018-03-21T19:09:22.291Z,2.49
2018-03-21T19:11:49.867Z,2.57
2018-03-21T19:14:17.521Z,2.56
2018-03-21T19:16:45.255Z,2.52
2018-03-21T19:19:12.840Z,2.45
2018-03-21T19:21:40.488Z,2.48
2018-03-21T19:24:08.244Z,2.51
2018-03-21T19:26:35.904Z,2.49
2018-03-21T19:29:04.048Z,2.44
2018-03-21T19:31:31.637Z,2.47
2018-03-21T19:33:59.291Z,2.50
2018-03-21T19:36:27.027Z,2.54
2018-03-21T19:38:54.598Z,2.52
2018-03-21T19:41:22.178Z,2.50
2018-03-21T19:43:49.839Z,2.51
2018-03-21T19:46:17.470Z,2.46
2018-03-21T19:48:45.080Z,2.44
2018-03-21T19:51:13.922Z,2.48
2018-03-21T19:53:41.507Z,2.48
2018-03-21T19:56:09.094Z,2.52
2018-03-21T19:58:36.742Z,2.55
2018-03-21T20:01:04.325Z,2.54
2018-03-21T20:03:31.964Z,2.58
2018-03-21T20:05:59.608Z,2.68
2018-03-21T20:08:27.193Z,2.71
2018-03-21T20:10:54.780Z,2.67
2018-03-21T20:13:22.408Z,2.59
2018-03-21T20:15:50.036Z,2.60
2018-03-21T20:18:17.603Z,2.61
2018-03-21T20:20:45.222Z,2.57
2018-03-21T20:23:12.851Z,2.53
2018-03-21T20:25:40.534Z,2.55
2018-03-21T20:28:08.136Z,2.60
2018-03-21T20:30:35.725Z,2.60
2018-03-21T20:33:03.371Z,2.65
2018-03-21T20:35:30.945Z,2.68
2018-03-21T20:37:58.605Z,2.70
2018-03-21T20:40:26.237Z,2.77
2018-03-21T20:42:53.825Z,2.79
2018-03-21T20:45:21.402Z,2.77
2018-03-21T20:47:49.046Z,2.72
2018-03-21T20:50:16.622Z,2.78
2018-03-21T20:52:44.200Z,2.79
2018-03-21T20:55:11.801Z,2.76
2018-03-21T20:57:39.450Z,2.67
2018-03-21T21:00:07.090Z,2.68
2018-03-21T21:02:34.714Z,2.68
2018-03-21T21:05:02.352Z,2.70
2018-03-21T21:07:30.000Z,2.65
2018-03-21T21:09:57.631Z,2.66
2018-03-21T21:12:25.275Z,2.71
2018-03-21T21:14:52.844Z,2.76
2018-03-21T21:17:20.425Z,2.82
2018-03-21T21:19:48.080Z,2.85
2018-03-21T21:22:15.780Z,2.83
2018-03-21T21:24:43.372Z,2.82
2018-03-21T21:27:10.942Z,2.81
2018-03-21T21:29:38.526Z,2.81
2018-03-21T21:32:06.103Z,2.81
2018-03-21T21:34:33.695Z,2.76
2018-03-21T21:37:01.273Z,2.71
2018-03-21T21:39:28.864Z,2.64
2018-03-21T21:41:56.503Z,2.64
2018-03-21T21:44:24.132Z,2.61
2018-03-21T21:46:51.802Z,2.58
2018-03-21T21:49:19.484Z,2.59
2018-03-21T21:51:47.123Z,2.62
2018-03-21T21:54:14.702Z,2.59
2018-03-21T21:56:42.283Z,2.54
2018-03-21T21:59:09.925Z,2.52
2018-03-21T22:01:37.514Z,2.55
2018-03-21T22:04:05.125Z,2.59
2018-03-21T22:06:32.763Z,2.64
2018-03-21T22:09:00.335Z,2.62
2018-03-21T22:11:27.905Z,2.58
2018-03-21T22:13:55.491Z,2.55
2018-03-21T22:16:23.124Z,2.58
2018-03-21T22:18:50.709Z,2.54
2018-03-21T22:21:18.338Z,2.54
2018-03-21T22:23:45.915Z,2.52
2018-03-21T22:26:13.484Z,2.57
2018-03-21T22:28:41.106Z,2.58
2018-03-21T22:31:08.739Z,2.62
2018-03-21T22:33:36.311Z,2.59
2018-03-21T22:36:03.890Z,2.65
2018-03-21T22:38:31.454Z,2.62
2018-03-21T22:40:59.043Z,2.66
2018-03-21T22:43:26.615Z,2.68
2018-03-21T22:45:54.193Z,2.72
2018-03-21T22:48:21.765Z,2.78
2018-03-21T22:50:49.454Z,2.75
2018-03-21T22:53:17.127Z,2.74
2018-03-21T22:55:44.744Z,2.77
2018-03-21T22:58:12.340Z,2.75
2018-03-21T23:00:39.998Z,2.80
2018-03-21T23:03:07.561Z,2.72
2018-03-21T23:05:35.131Z,2.66
2018-03-21T23:08:02.722Z,2.63
2018-03-21T23:10:30.298Z,2.59
2018-03-21T23:12:57.987Z,2.55
2018-03-21T23:15:25.624Z,2.53
2018-03-21T23:17:53.194Z,2.49
2018-03-21T23:20:20.780Z,2.47
2018-03-21T23:22:48.354Z,2.45
2018-03-21T23:25:15.991Z,2.45
2018-03-21T23:27:43.573Z,2.48
2018-03-21T23:30:11.223Z,2.56
2018-03-21T23:32:38.794Z,2.57
2018-03-21T23:35:06.485Z,2.60
2018-03-21T23:37:34.122Z,2.61
2018-03-21T23:40:01.709Z,2.61
2018-03-21T23:42:29.301Z,2.64
2018-03-21T23:44:56.880Z,2.63
2018-03-21T23:47:24.527Z,2.64
2018-03-21T23:49:52.117Z,2.64
2018-03-21T23:52:19.704Z,2.64
2018-03-21T23:54:47.291Z,2.62
2018-03-21T23:57:14.927Z,2.56
2018-03-21T23:59:42.582Z,2.55
